createdAt,value
2023-02-05T00:00:10.271Z,10.27
2023-02-05T00:02:12.685Z,10.20
2023-02-05T00:04:16.366Z,10.22
2023-02-05T00:06:18.637Z,10.20
2023-02-05T00:08:20.404Z,10.20
2023-02-05T00:10:23.502Z,10.19
2023-02-05T00:12:25.163Z,10.17
2023-02-05T00:14:26.793Z,10.17
2023-02-05T00:16:28.799Z,10.14
2023-02-05T00:18:30.610Z,10.08
2023-02-05T00:20:32.241Z,10.07
2023-02-05T00:22:33.935Z,10.04
2023-02-05T00:24:35.590Z,10.02
2023-02-05T00:26:42.161Z,10.09
2023-02-05T00:28:44.052Z,10.11
2023-02-05T00:30:45.845Z,10.14
2023-02-05T00:32:47.474Z,10.11
2023-02-05T00:34:49.335Z,10.14
2023-02-05T00:36:50.938Z,10.14
2023-02-05T00:38:52.622Z,10.16
2023-02-05T00:40:54.279Z,10.26
2023-02-05T00:42:57.177Z,10.19
2023-02-05T00:44:58.739Z,10.17
2023-02-05T00:47:00.547Z,10.20
2023-02-05T00:49:02.046Z,10.23
2023-02-05T00:51:03.872Z,10.28
2023-02-05T00:53:05.439Z,10.26
2023-02-05T00:55:07.945Z,10.25
2023-02-05T00:57:09.796Z,10.24
2023-02-05T00:59:12.721Z,10.18
2023-02-05T01:01:14.923Z,10.16
2023-02-05T01:03:16.687Z,10.11
2023-02-05T01:05:18.481Z,10.07
2023-02-05T01:07:20.575Z,10.07
2023-02-05T01:09:22.421Z,10.04
2023-02-05T01:11:24.052Z,10.00
2023-02-05T01:13:25.705Z,9.98
2023-02-05T01:15:28.617Z,9.96
2023-02-05T01:17:30.187Z,9.97
2023-02-05T01:19:33.339Z,9.96
2023-02-05T01:21:34.974Z,9.96
2023-02-05T01:23:36.546Z,9.95
2023-02-05T01:25:38.157Z,9.93
2023-02-05T01:27:39.663Z,9.93
2023-02-05T01:29:41.334Z,9.92
2023-02-05T01:31:44.600Z,9.87
2023-02-05T01:33:46.213Z,9.93
2023-02-05T01:35:48.518Z,9.96
2023-02-05T01:37:50.144Z,10.01
2023-02-05T01:39:51.671Z,9.97
2023-02-05T01:41:53.188Z,9.97
2023-02-05T01:44:09.418Z,10.01
2023-02-05T01:46:20.282Z,10.05
2023-02-05T01:48:27.633Z,10.04
2023-02-05T01:50:32.308Z,9.98
2023-02-05T01:52:33.888Z,9.94
2023-02-05T01:54:39.330Z,9.87
2023-02-05T01:56:45.232Z,9.79
2023-02-05T01:58:51.913Z,9.77
2023-02-05T02:00:53.787Z,9.77
2023-02-05T02:02:55.781Z,9.72
2023-02-05T02:07:11.388Z,9.75
2023-02-05T02:09:12.925Z,9.74
2023-02-05T02:11:18.008Z,9.76
2023-02-05T02:13:22.423Z,9.84
2023-02-05T02:15:27.027Z,9.82
2023-02-05T02:17:29.978Z,9.83
2023-02-05T02:19:34.297Z,9.85
2023-02-05T02:22:14.783Z,9.81
2023-02-05T02:24:49.004Z,9.75
2023-02-05T02:27:02.628Z,9.77
2023-02-05T02:29:05.685Z,9.72
2023-02-05T02:31:11.298Z,9.71
2023-02-05T02:33:19.137Z,9.71
2023-02-05T02:35:27.260Z,9.72
2023-02-05T02:37:36.068Z,9.77
2023-02-05T02:39:42.311Z,9.77
2023-02-05T02:41:51.624Z,9.73
2023-02-05T02:43:56.554Z,9.78
2023-02-05T02:46:04.344Z,9.77
2023-02-05T02:48:07.246Z,9.69
2023-02-05T02:50:13.997Z,9.67
2023-02-05T02:52:19.368Z,9.51
2023-02-05T02:54:22.204Z,9.44
2023-02-05T02:56:26.122Z,9.40
2023-02-05T02:58:32.598Z,9.38
2023-02-05T03:00:34.279Z,9.29
2023-02-05T03:02:38.204Z,9.26
2023-02-05T03:04:42.693Z,9.35
2023-02-05T03:06:48.174Z,9.40
2023-02-05T03:08:54.495Z,9.48
2023-02-05T03:11:01.737Z,9.49
2023-02-05T03:13:03.370Z,9.51
2023-02-05T03:15:06.514Z,9.52
2023-02-05T03:17:08.077Z,9.54
2023-02-05T03:19:10.985Z,9.53
2023-02-05T03:21:17.255Z,9.50
2023-02-05T03:23:18.873Z,9.50
2023-02-05T03:25:22.691Z,9.48
2023-02-05T03:27:24.298Z,9.51
2023-02-05T03:29:28.048Z,9.51
2023-02-05T03:31:41.295Z,9.51
2023-02-05T03:33:54.601Z,9.46
2023-02-05T03:36:04.960Z,9.47
2023-02-05T03:38:29.296Z,9.48
2023-02-05T03:40:38.019Z,9.54
2023-02-05T03:42:49.045Z,9.61
2023-02-05T03:45:07.609Z,9.64
2023-02-05T03:47:16.078Z,9.69
2023-02-05T03:49:21.227Z,9.61
2023-02-05T03:51:35.375Z,9.56
2023-02-05T03:53:43.676Z,9.54
2023-02-05T03:55:49.953Z,9.54
2023-02-05T03:57:58.832Z,9.53
2023-02-05T04:00:03.879Z,9.52
2023-02-05T04:02:06.076Z,9.54
2023-02-05T04:04:07.702Z,9.55
2023-02-05T04:06:09.424Z,9.60
2023-02-05T04:08:12.335Z,9.59
2023-02-05T04:10:14.106Z,9.60
2023-02-05T04:12:15.672Z,9.65
2023-02-05T04:14:17.200Z,9.63
2023-02-05T04:16:18.754Z,9.62
2023-02-05T04:18:20.508Z,9.66
2023-02-05T04:20:22.207Z,9.65
2023-02-05T04:22:23.758Z,9.67
2023-02-05T04:24:26.881Z,9.68
2023-02-05T04:26:28.433Z,9.71
2023-02-05T04:28:29.993Z,9.75
2023-02-05T04:30:31.825Z,9.75
2023-02-05T04:32:33.372Z,9.74
2023-02-05T04:34:34.904Z,9.76
2023-02-05T04:36:36.447Z,9.75
2023-02-05T04:38:37.977Z,9.73
2023-02-05T04:40:40.929Z,9.73
2023-02-05T04:42:42.498Z,9.76
2023-02-05T04:44:44.009Z,9.79
2023-02-05T04:46:48.670Z,9.81
2023-02-05T04:48:50.272Z,9.81
2023-02-05T04:50:51.810Z,9.75
2023-02-05T04:52:53.365Z,9.72
2023-02-05T04:54:54.891Z,9.75
2023-02-05T04:56:57.772Z,9.75
2023-02-05T04:58:59.330Z,9.75
2023-02-05T05:01:01.036Z,9.82
2023-02-05T05:03:02.620Z,9.79
2023-02-05T05:05:04.558Z,9.77
2023-02-05T05:07:06.198Z,9.72
2023-02-05T05:09:07.720Z,9.70
2023-02-05T05:11:11.961Z,9.68
2023-02-05T05:13:14.837Z,9.66
2023-02-05T05:15:16.554Z,9.61
2023-02-05T05:17:18.118Z,9.66
2023-02-05T05:19:19.659Z,9.67
2023-02-05T05:21:23.550Z,9.65
2023-02-05T05:23:25.558Z,9.66
2023-02-05T05:25:27.065Z,9.68
2023-02-05T05:27:28.752Z,9.70
2023-02-05T05:29:31.641Z,9.71
2023-02-05T05:31:33.196Z,9.71
2023-02-05T05:33:34.873Z,9.71
2023-02-05T05:35:37.008Z,9.74
2023-02-05T05:37:38.514Z,9.70
2023-02-05T05:39:40.026Z,9.72
2023-02-05T05:41:41.551Z,9.68
2023-02-05T05:43:43.087Z,9.68
2023-02-05T05:45:46.155Z,9.65
2023-02-05T05:47:47.912Z,9.61
2023-02-05T05:49:49.775Z,9.63
2023-02-05T05:51:51.327Z,9.59
2023-02-05T05:53:52.892Z,9.61
2023-02-05T05:55:54.384Z,9.59
2023-02-05T05:57:55.875Z,9.60
2023-02-05T05:59:57.396Z,9.66
2023-02-05T06:02:00.555Z,9.70
2023-02-05T06:04:04.161Z,9.69
2023-02-05T06:06:07.797Z,9.70
2023-02-05T06:08:09.361Z,9.70
2023-02-05T06:10:10.928Z,9.69
2023-02-05T06:12:12.480Z,9.67
2023-02-05T06:14:13.983Z,9.66
2023-02-05T06:16:15.496Z,9.65
2023-02-05T06:18:18.680Z,9.67
2023-02-05T06:20:23.438Z,9.62
2023-02-05T06:22:26.222Z,9.65
2023-02-05T06:24:29.567Z,9.64
2023-02-05T06:26:32.590Z,9.61
2023-02-05T06:28:34.135Z,9.64
2023-02-05T06:30:35.746Z,9.63
2023-02-05T06:32:37.216Z,9.65
2023-02-05T06:34:40.073Z,9.68
2023-02-05T06:36:44.389Z,9.73
2023-02-05T06:38:46.002Z,9.76
2023-02-05T06:40:48.212Z,9.80
2023-02-05T06:42:49.901Z,9.80
2023-02-05T06:44:51.470Z,9.76
2023-02-05T06:46:52.984Z,9.78
2023-02-05T06:48:54.551Z,9.77
2023-02-05T06:50:57.418Z,9.77
2023-02-05T06:52:59.066Z,9.73
2023-02-05T06:55:00.675Z,9.59
2023-02-05T06:57:02.242Z,9.52
2023-02-05T06:59:04.154Z,9.44
2023-02-05T07:01:05.802Z,9.44
2023-02-05T07:03:07.332Z,9.38
2023-02-05T07:05:09.212Z,9.39
2023-02-05T07:07:12.072Z,9.38
2023-02-05T07:09:13.585Z,9.39
2023-02-05T07:11:15.208Z,9.39
2023-02-05T07:13:16.734Z,9.46
2023-02-05T07:15:18.474Z,9.48
2023-02-05T07:17:19.981Z,9.47
2023-02-05T07:19:21.700Z,9.44
2023-02-05T07:21:23.186Z,9.44
2023-02-05T07:23:26.033Z,9.46
2023-02-05T07:25:27.555Z,9.39
2023-02-05T07:27:30.714Z,9.41
2023-02-05T07:29:32.363Z,9.35
2023-02-05T07:31:34.061Z,9.30
2023-02-05T07:33:35.746Z,9.32
2023-02-05T07:35:38.112Z,9.27
2023-02-05T07:37:39.637Z,9.29
2023-02-05T07:39:42.494Z,9.30
2023-02-05T07:41:44.028Z,9.27
2023-02-05T07:43:45.565Z,9.20
2023-02-05T07:45:47.259Z,9.29
2023-02-05T07:47:48.970Z,9.33
2023-02-05T07:49:50.591Z,9.25
2023-02-05T07:51:52.311Z,9.19
2023-02-05T07:53:54.015Z,9.11
2023-02-05T07:55:57.135Z,9.13
2023-02-05T07:57:58.957Z,9.14
2023-02-05T08:00:00.602Z,9.13
2023-02-05T08:02:02.610Z,9.06
2023-02-05T08:04:04.650Z,9.04
2023-02-05T08:06:07.717Z,8.97
2023-02-05T08:08:11.863Z,8.96
2023-02-05T08:10:14.628Z,8.93
2023-02-05T08:12:17.496Z,8.98
2023-02-05T08:14:19.025Z,8.97
2023-02-05T08:16:21.219Z,8.94
2023-02-05T08:18:23.440Z,8.96
2023-02-05T08:20:24.984Z,8.98
2023-02-05T08:22:26.532Z,8.93
2023-02-05T08:24:28.210Z,8.88
2023-02-05T08:26:29.802Z,8.80
2023-02-05T08:28:32.660Z,8.89
2023-02-05T08:30:34.283Z,8.84
2023-02-05T08:32:37.128Z,8.82
2023-02-05T08:34:38.609Z,8.80
2023-02-05T08:36:40.137Z,8.77
2023-02-05T08:38:41.912Z,8.80
2023-02-05T08:40:43.448Z,8.82
2023-02-05T08:42:45.001Z,8.72
2023-02-05T08:44:47.914Z,8.75
2023-02-05T08:46:50.629Z,8.79
2023-02-05T08:48:53.283Z,8.79
2023-02-05T08:50:54.849Z,8.81
2023-02-05T08:52:56.429Z,8.84
2023-02-05T08:54:58.513Z,8.78
2023-02-05T08:57:00.092Z,8.77
2023-02-05T08:59:01.674Z,8.78
2023-02-05T09:01:06.893Z,8.79
2023-02-05T09:03:08.415Z,8.79
2023-02-05T09:05:10.097Z,8.78
2023-02-05T09:07:11.604Z,8.80
2023-02-05T09:09:13.476Z,8.88
2023-02-05T09:11:21.077Z,8.85
2023-02-05T09:13:22.593Z,8.88
2023-02-05T09:15:24.168Z,8.91
2023-02-05T09:17:27.136Z,8.95
2023-02-05T09:19:29.053Z,8.89
2023-02-05T09:21:30.654Z,8.86
2023-02-05T09:23:32.234Z,8.88
2023-02-05T09:25:34.000Z,8.94
2023-02-05T09:27:35.905Z,9.00
2023-02-05T09:29:37.740Z,9.04
2023-02-05T09:31:41.088Z,9.14
2023-02-05T09:33:46.396Z,9.10
2023-02-05T09:35:48.101Z,9.06
2023-02-05T09:37:49.778Z,9.05
2023-02-05T09:42:21.077Z,9.03
2023-02-05T09:44:43.006Z,9.02
2023-02-05T09:46:53.349Z,8.97
2023-02-05T09:49:00.881Z,8.88
2023-02-05T09:51:03.440Z,8.95
2023-02-05T09:53:11.510Z,9.02
2023-02-05T09:55:19.838Z,9.07
2023-02-05T09:57:32.144Z,8.97
2023-02-05T09:59:34.170Z,8.93
2023-02-05T10:01:44.331Z,8.98
2023-02-05T10:03:48.496Z,9.01
2023-02-05T10:06:07.879Z,9.02
2023-02-05T10:08:19.207Z,9.01
2023-02-05T10:10:26.309Z,9.02
2023-02-05T10:12:40.361Z,9.04
2023-02-05T10:14:51.986Z,9.03
2023-02-05T10:17:09.842Z,9.01
2023-02-05T10:19:26.814Z,9.08
2023-02-05T10:21:47.764Z,9.11
2023-02-05T10:24:16.480Z,9.06
2023-02-05T10:26:18.217Z,9.01
2023-02-05T10:28:35.810Z,9.04
2023-02-05T10:30:47.610Z,8.99
2023-02-05T10:32:56.168Z,9.01
2023-02-05T10:35:00.678Z,9.02
2023-02-05T10:37:09.186Z,9.02
2023-02-05T10:39:14.237Z,9.03
2023-02-05T10:41:24.570Z,9.02
2023-02-05T10:43:30.065Z,9.05
2023-02-05T10:45:31.958Z,9.11
2023-02-05T10:48:02.413Z,9.12
2023-02-05T10:50:14.021Z,9.01
2023-02-05T10:52:17.451Z,9.06
2023-02-05T10:54:26.307Z,9.02
2023-02-05T10:56:27.936Z,9.11
2023-02-05T10:58:39.169Z,9.13
2023-02-05T11:00:40.923Z,9.13
2023-02-05T11:02:45.936Z,9.10
2023-02-05T11:04:52.605Z,9.10
2023-02-05T11:06:54.457Z,9.19
2023-02-05T11:08:57.554Z,9.24
2023-02-05T11:10:59.153Z,9.20
2023-02-05T11:13:05.086Z,9.24
2023-02-05T11:15:19.615Z,9.21
2023-02-05T11:17:22.967Z,9.20
2023-02-05T11:19:27.678Z,9.23
2023-02-05T11:21:48.651Z,9.32
2023-02-05T11:23:55.414Z,9.37
2023-02-05T11:25:59.686Z,9.35
2023-02-05T11:28:03.291Z,9.41
2023-02-05T11:30:49.614Z,9.51
2023-02-05T11:32:46.741Z,9.54
2023-02-05T11:34:48.414Z,9.49
2023-02-05T11:36:52.216Z,9.47
2023-02-05T11:38:54.988Z,9.45
2023-02-05T11:41:00.621Z,9.43
2023-02-05T11:43:07.508Z,9.44
2023-02-05T11:45:17.332Z,9.38
2023-02-05T11:47:24.935Z,9.32
2023-02-05T11:49:31.183Z,9.38
2023-02-05T11:51:45.320Z,9.41
2023-02-05T11:53:57.308Z,9.42
2023-02-05T11:56:07.433Z,9.48
2023-02-05T11:58:25.136Z,9.51
2023-02-05T12:00:36.622Z,9.50
2023-02-05T12:02:39.491Z,9.46
2023-02-05T12:04:47.471Z,9.41
2023-02-05T12:06:52.454Z,9.41
2023-02-05T12:08:54.059Z,9.39
2023-02-05T12:11:08.444Z,9.40
2023-02-05T12:13:21.492Z,9.45
2023-02-05T12:15:26.519Z,9.40
2023-02-05T12:17:35.235Z,9.40
2023-02-05T12:19:46.542Z,9.40
2023-02-05T12:21:58.280Z,9.37
2023-02-05T12:24:37.200Z,9.38
2023-02-05T12:26:44.001Z,9.38
2023-02-05T12:28:54.246Z,9.42
2023-02-05T12:31:08.163Z,9.39
2023-02-05T12:33:28.351Z,9.39
2023-02-05T12:35:44.872Z,9.46
2023-02-05T12:37:54.191Z,9.49
2023-02-05T12:40:07.148Z,9.48
2023-02-05T12:42:20.918Z,9.50
2023-02-05T12:44:38.070Z,9.45
2023-02-05T12:46:51.217Z,9.40
2023-02-05T12:49:09.912Z,9.50
2023-02-05T12:51:30.968Z,9.55
2023-02-05T12:53:51.323Z,9.51
2023-02-05T12:56:13.024Z,9.55
2023-02-05T12:58:19.768Z,9.58
2023-02-05T13:00:25.815Z,9.65
2023-02-05T13:02:33.481Z,9.61
2023-02-05T13:04:40.212Z,9.59
2023-02-05T13:06:47.735Z,9.59
2023-02-05T13:08:53.048Z,9.59
2023-02-05T13:10:59.708Z,9.57
2023-02-05T13:13:06.252Z,9.57
2023-02-05T13:15:16.508Z,9.62
2023-02-05T13:17:22.814Z,9.63
2023-02-05T13:19:28.277Z,9.60
2023-02-05T13:21:30.317Z,9.65
2023-02-05T13:23:35.187Z,9.66
2023-02-05T13:25:40.135Z,9.68
2023-02-05T13:27:46.485Z,9.64
2023-02-05T13:29:51.617Z,9.71
2023-02-05T13:32:10.566Z,9.76
2023-02-05T13:34:17.769Z,9.77
2023-02-05T13:36:47.170Z,9.72
2023-02-05T13:39:08.451Z,9.73
2023-02-05T13:41:28.522Z,9.77
2023-02-05T13:44:01.954Z,9.82
2023-02-05T13:46:33.919Z,9.81
2023-02-05T13:49:41.561Z,9.83
2023-02-05T13:51:53.249Z,9.86
2023-02-05T13:54:13.988Z,9.88
2023-02-05T13:56:30.900Z,9.84
2023-02-05T13:58:35.688Z,9.77
2023-02-05T14:00:40.230Z,9.71
2023-02-05T14:02:44.197Z,9.75
2023-02-05T14:04:48.394Z,9.72
2023-02-05T14:06:58.187Z,9.78
2023-02-05T14:09:03.485Z,9.78
2023-02-05T14:11:06.165Z,9.79
2023-02-05T14:13:17.762Z,9.78
2023-02-05T14:15:35.078Z,9.82
2023-02-05T14:17:54.527Z,9.87
2023-02-05T14:19:57.620Z,9.91
2023-02-05T14:22:04.099Z,9.88
2023-02-05T14:24:27.231Z,9.93
2023-02-05T14:26:44.800Z,10.00
2023-02-05T14:28:49.217Z,10.02
2023-02-05T14:30:52.265Z,10.03
2023-02-05T14:32:59.708Z,10.09
2023-02-05T14:35:01.988Z,10.12
2023-02-05T14:37:05.750Z,10.11
2023-02-05T14:39:20.419Z,10.17
2023-02-05T14:41:25.034Z,10.19
2023-02-05T14:43:32.179Z,10.19
2023-02-05T14:45:35.080Z,10.19
2023-02-05T14:47:40.522Z,10.12
2023-02-05T14:49:45.379Z,10.05
2023-02-05T14:51:52.288Z,9.98
2023-02-05T14:53:59.354Z,9.90
2023-02-05T14:56:02.016Z,9.84
2023-02-05T14:58:07.174Z,9.84
2023-02-05T15:00:24.510Z,9.83
2023-02-05T15:03:14.883Z,9.74
2023-02-05T15:05:21.752Z,9.54
2023-02-05T15:07:27.416Z,9.47
2023-02-05T15:09:41.251Z,9.45
2023-02-05T15:11:55.127Z,9.38
2023-02-05T15:14:25.689Z,9.15
2023-02-05T15:16:27.282Z,9.01
2023-02-05T15:18:32.102Z,8.93
2023-02-05T15:20:34.933Z,8.83
2023-02-05T15:22:40.256Z,8.98
2023-02-05T15:24:44.398Z,9.11
2023-02-05T15:26:51.764Z,9.16
2023-02-05T15:28:59.423Z,9.24
2023-02-05T15:31:18.630Z,9.28
2023-02-05T15:33:28.572Z,9.29
2023-02-05T15:35:33.399Z,9.31
2023-02-05T15:37:41.999Z,9.37
2023-02-05T15:39:51.127Z,9.33
2023-02-05T15:41:56.022Z,9.32
2023-02-05T15:43:59.945Z,9.36
2023-02-05T15:46:05.486Z,9.44
2023-02-05T15:48:12.451Z,9.48
2023-02-05T15:50:15.238Z,9.55
2023-02-05T15:52:20.742Z,9.64
2023-02-05T15:54:22.947Z,9.70
2023-02-05T15:56:28.131Z,9.71
2023-02-05T15:58:29.958Z,9.79
2023-02-05T16:00:36.987Z,9.87
2023-02-05T16:02:38.544Z,9.88
2023-02-05T16:04:40.155Z,9.90
2023-02-05T16:06:41.831Z,9.86
2023-02-05T16:08:46.722Z,9.85
2023-02-05T16:10:53.031Z,9.79
2023-02-05T16:12:59.928Z,9.72
2023-02-05T16:15:03.360Z,9.69
2023-02-05T16:17:11.042Z,9.68
2023-02-05T16:19:20.933Z,9.69
2023-02-05T16:21:25.726Z,9.76
2023-02-05T16:23:33.843Z,9.80
2023-02-05T16:25:43.440Z,9.86
2023-02-05T16:27:48.752Z,9.91
2023-02-05T16:29:55.686Z,9.92
2023-02-05T16:32:01.584Z,9.91
2023-02-05T16:34:11.887Z,9.91
2023-02-05T16:36:19.211Z,9.94
2023-02-05T16:38:22.223Z,9.95
2023-02-05T16:40:32.774Z,9.98
2023-02-05T16:42:38.202Z,9.94
2023-02-05T16:44:40.354Z,9.78
2023-02-05T16:46:43.309Z,9.65
2023-02-05T16:48:49.555Z,9.48
2023-02-05T16:50:51.844Z,9.32
2023-02-05T16:52:56.493Z,9.34
2023-02-05T16:54:58.814Z,9.42
2023-02-05T16:57:09.222Z,9.56
2023-02-05T16:59:17.911Z,9.69
2023-02-05T17:01:24.639Z,9.49
2023-02-05T17:03:32.087Z,9.35
2023-02-05T17:05:36.508Z,9.31
2023-02-05T17:07:38.078Z,9.17
2023-02-05T17:09:39.990Z,9.07
2023-02-05T17:11:42.782Z,9.13
2023-02-05T17:13:45.117Z,9.17
2023-02-05T17:15:46.739Z,9.23
2023-02-05T17:17:50.257Z,9.31
2023-02-05T17:20:22.821Z,9.36
2023-02-05T17:22:24.333Z,9.26
2023-02-05T17:24:26.120Z,9.24
2023-02-05T17:26:30.880Z,9.16
2023-02-05T17:28:32.589Z,9.20
2023-02-05T17:30:35.113Z,9.10
2023-02-05T17:32:37.367Z,9.11
2023-02-05T17:34:38.867Z,9.19
2023-02-05T17:36:41.925Z,9.18
2023-02-05T17:38:43.712Z,9.22
2023-02-05T17:40:45.273Z,9.08
2023-02-05T17:42:47.534Z,9.08
2023-02-05T17:44:49.797Z,8.99
2023-02-05T17:46:51.517Z,8.98
2023-02-05T17:48:53.137Z,8.97
2023-02-05T17:50:54.718Z,9.02
2023-02-05T17:52:57.603Z,9.15
2023-02-05T17:54:59.208Z,9.26
2023-02-05T17:57:12.158Z,9.23
2023-02-05T17:59:15.932Z,9.21
2023-02-05T18:01:18.304Z,9.21
2023-02-05T18:03:19.831Z,9.14
2023-02-05T18:05:22.671Z,9.07
2023-02-05T18:07:29.334Z,9.06
2023-02-05T18:09:32.177Z,8.87
2023-02-05T18:11:33.850Z,8.92
2023-02-05T18:13:35.755Z,8.93
2023-02-05T18:15:37.507Z,9.02
2023-02-05T18:17:39.635Z,9.02
2023-02-05T18:19:41.170Z,9.11
2023-02-05T18:21:42.741Z,9.18
2023-02-05T18:23:44.298Z,9.30
2023-02-05T18:25:47.163Z,9.39
2023-02-05T18:27:48.771Z,9.40
2023-02-05T18:29:50.430Z,9.45
2023-02-05T18:31:51.921Z,9.45
2023-02-05T18:33:53.413Z,9.45
2023-02-05T18:36:00.338Z,9.49
2023-02-05T18:38:01.885Z,9.49
2023-02-05T18:40:04.003Z,9.48
2023-02-05T18:42:06.941Z,9.48
2023-02-05T18:44:08.642Z,9.45
2023-02-05T18:46:12.360Z,9.46
2023-02-05T18:48:14.068Z,9.47
2023-02-05T18:50:16.361Z,9.50
2023-02-05T18:52:17.930Z,9.48
2023-02-05T18:54:19.511Z,9.53
2023-02-05T18:56:22.964Z,9.49
2023-02-05T18:58:25.879Z,9.47
2023-02-05T19:00:27.551Z,9.46
2023-02-05T19:02:29.025Z,9.49
2023-02-05T19:04:30.555Z,9.53
2023-02-05T19:06:32.576Z,9.53
2023-02-05T19:08:34.267Z,9.55
2023-02-05T19:10:36.463Z,9.50
2023-02-05T19:12:38.160Z,9.37
2023-02-05T19:14:41.018Z,9.24
2023-02-05T19:16:43.696Z,9.23
2023-02-05T19:18:46.160Z,9.29
2023-02-05T19:20:47.698Z,9.35
2023-02-05T19:22:52.368Z,9.38
2023-02-05T19:24:53.884Z,9.40
2023-02-05T19:26:56.225Z,9.41
2023-02-05T19:28:59.827Z,9.46
2023-02-05T19:31:03.920Z,9.49
2023-02-05T19:33:05.582Z,9.50
2023-02-05T19:35:07.794Z,9.49
2023-02-05T19:37:11.861Z,9.40
2023-02-05T19:39:14.581Z,9.39
2023-02-05T19:41:17.651Z,9.45
2023-02-05T19:43:19.214Z,9.46
2023-02-05T19:45:20.773Z,9.48
2023-02-05T19:47:23.637Z,9.49
2023-02-05T19:49:25.237Z,9.49
2023-02-05T19:51:26.863Z,9.48
2023-02-05T19:53:28.397Z,9.44
2023-02-05T19:55:31.325Z,9.46
2023-02-05T19:57:33.895Z,9.45
2023-02-05T19:59:35.546Z,9.43
2023-02-05T20:01:38.363Z,9.41
2023-02-05T20:03:42.174Z,9.38
2023-02-05T20:05:43.660Z,9.36
2023-02-05T20:07:48.624Z,9.38
2023-02-05T20:09:50.146Z,9.37
2023-02-05T20:11:52.023Z,9.30
2023-02-05T20:13:53.698Z,9.26
2023-02-05T20:15:55.324Z,9.23
2023-02-05T20:17:58.508Z,9.21
2023-02-05T20:20:12.338Z,9.14
2023-02-05T20:22:17.382Z,9.02
2023-02-05T20:24:18.961Z,9.02
2023-02-05T20:26:21.228Z,9.01
2023-02-05T20:28:23.359Z,8.82
2023-02-05T20:30:25.081Z,8.77
2023-02-05T20:32:26.768Z,8.72
2023-02-05T20:34:28.782Z,8.81
2023-02-05T20:36:33.587Z,8.87
2023-02-05T20:38:35.402Z,8.86
2023-02-05T20:40:37.078Z,8.75
2023-02-05T20:42:38.763Z,8.62
2023-02-05T20:44:41.172Z,8.46
2023-02-05T20:46:42.856Z,8.44
2023-02-05T20:48:44.710Z,8.38
2023-02-05T20:50:46.297Z,8.17
2023-02-05T20:52:49.217Z,8.14
2023-02-05T20:54:50.946Z,7.99
2023-02-05T20:56:53.368Z,8.05
2023-02-05T20:58:57.760Z,7.94
2023-02-05T21:01:05.763Z,7.86
2023-02-05T21:03:07.260Z,7.90
2023-02-05T21:05:08.755Z,7.94
2023-02-05T21:07:10.519Z,7.99
2023-02-05T21:09:14.486Z,7.80
2023-02-05T21:11:17.907Z,7.74
2023-02-05T21:13:19.560Z,7.84
2023-02-05T21:15:21.094Z,7.91
2023-02-05T21:17:22.572Z,7.91
2023-02-05T21:19:24.096Z,7.94
2023-02-05T21:21:27.749Z,7.59
2023-02-05T21:23:29.241Z,7.51
2023-02-05T21:25:35.121Z,7.39
2023-02-05T21:27:36.637Z,7.33
2023-02-05T21:29:38.304Z,7.42
2023-02-05T21:31:42.034Z,7.56
2023-02-05T21:33:43.618Z,7.50
2023-02-05T21:35:45.174Z,7.47
2023-02-05T21:37:46.702Z,7.43
2023-02-05T21:39:49.437Z,7.59
2023-02-05T21:41:54.049Z,7.65
2023-02-05T21:43:58.158Z,7.44
2023-02-05T21:46:01.326Z,7.43
2023-02-05T21:48:02.910Z,7.32
2023-02-05T21:50:05.838Z,7.30
2023-02-05T21:52:08.115Z,7.28
2023-02-05T21:54:10.778Z,7.25
2023-02-05T21:56:15.582Z,7.30
2023-02-05T21:58:18.546Z,7.31
2023-02-05T22:00:20.386Z,7.34
2023-02-05T22:02:21.946Z,7.47
2023-02-05T22:04:23.547Z,7.56
2023-02-05T22:06:27.246Z,7.50
2023-02-05T22:08:30.660Z,7.42
2023-02-05T22:10:32.153Z,7.46
2023-02-05T22:12:33.663Z,7.39
2023-02-05T22:14:36.559Z,7.43
2023-02-05T22:16:38.711Z,7.39
2023-02-05T22:18:41.196Z,7.38
2023-02-05T22:20:42.639Z,7.36
2023-02-05T22:22:44.304Z,7.27
2023-02-05T22:24:45.835Z,7.23
2023-02-05T22:26:47.678Z,7.21
2023-02-05T22:28:49.520Z,7.23
2023-02-05T22:30:58.732Z,7.45
2023-02-05T22:33:00.257Z,7.62
2023-02-05T22:35:01.795Z,7.78
2023-02-05T22:37:03.271Z,7.95
2023-02-05T22:39:06.601Z,8.07
2023-02-05T22:41:09.816Z,8.16
2023-02-05T22:43:11.353Z,8.22
2023-02-05T22:45:12.959Z,8.26
2023-02-05T22:47:15.856Z,8.33
2023-02-05T22:49:17.345Z,8.38
2023-02-05T22:51:20.677Z,8.47
2023-02-05T22:53:22.151Z,8.49
2023-02-05T22:55:23.583Z,8.52
2023-02-05T22:57:25.163Z,8.32
2023-02-05T22:59:26.827Z,8.16
2023-02-05T23:01:30.641Z,8.12
2023-02-05T23:03:33.768Z,7.91
2023-02-05T23:05:35.585Z,7.85
2023-02-05T23:07:37.474Z,7.83
2023-02-05T23:09:38.994Z,7.79
2023-02-05T23:11:40.634Z,7.85
2023-02-05T23:13:42.292Z,7.87
2023-02-05T23:15:43.826Z,7.88
2023-02-05T23:17:45.376Z,7.98
2023-02-05T23:19:50.804Z,8.10
2023-02-05T23:21:52.349Z,8.08
2023-02-05T23:23:54.100Z,8.14
2023-02-05T23:25:55.546Z,8.18
2023-02-05T23:27:57.126Z,8.22
2023-02-05T23:29:58.757Z,8.30
2023-02-05T23:32:00.241Z,8.38
2023-02-05T23:34:01.838Z,8.45
2023-02-05T23:36:06.860Z,8.47
2023-02-05T23:38:08.566Z,8.52
2023-02-05T23:40:11.090Z,8.54
2023-02-05T23:42:12.614Z,8.40
2023-02-05T23:44:16.468Z,8.23
2023-02-05T23:46:18.022Z,8.09
2023-02-05T23:48:20.037Z,7.98
2023-02-05T23:50:21.581Z,8.03
2023-02-05T23:52:24.597Z,8.00
2023-02-05T23:54:26.363Z,7.87
2023-02-05T23:56:27.898Z,7.84
2023-02-05T23:58:29.367Z,7.81
